• Join FlightAware (Why Join?)
  • Login
  • US Flag 
07:28PM EDT


 

Airport Tracker/Info


-or-


 

Live Flight TrackerFlight Track Log ✈ N500HY ✈ 01-Jul-2013 ✈ KGCC - KPDX

Flight Track Log - Related Links

Times and Time Zones

All times are in EDT time to prevent confusion due to time zone crossing. See the N500HY flight status page for this flight to view local times or setup timezone preferences in your user account.

Time Position Orientation Groundspeed Altitude Reporting Facility
EDT Latitude Longitude Course Direction KTS MPH feet Rate Location/Type
06:13PM 44.4066 -105.9457 281° West  Level FlightAware Approximate
06:14PM 44.4264 -106.0847 281° West  Level FlightAware Approximate
06:15PM 44.4333 -106.2256 270° West  Level FlightAware Approximate
06:16PM 44.4564 -106.3635 284° West  Level FlightAware Approximate
06:17PM 44.4806 -106.5013 284° West  Level FlightAware Approximate
06:18PM 44.4930 -106.6420 276° West  Level FlightAware Approximate
06:19PM 44.5092 -106.7818 285° West  Level FlightAware Approximate
06:19PM 44.4389 -105.8508 281° West 282 325 13,800  Level Salt Lake Center
06:20PM 44.5349 -106.9192 285° West  Level FlightAware Approximate
06:20PM 44.4544 -105.9750 280° West 287 330 15,900  Level Denver Center
06:21PM 44.5582 -107.0574 281° West  Level FlightAware Approximate
06:21PM 44.4703 -106.0881 281° West 296 341 17,600  Level Denver Center
06:22PM 44.5735 -107.1978 277° West  Level FlightAware Approximate
06:22PM 44.4900 -106.2217 282° West 306 352 19,500  Level Denver Center
06:23PM 44.5864 -107.3388 281° West  Level FlightAware Approximate
06:23PM 44.5056 -106.3381 281° West 310 357 21,300  Level Salt Lake Center
06:24PM 44.5211 -106.4525 281° West 311 358 22,700 1,320 Climbing Salt Lake Center
06:25PM 44.5400 -106.5906 281° West 317 365 24,100 1,140 Climbing Salt Lake Center
06:26PM 44.5575 -106.7144 281° West 326 375 25,100 1,080 Climbing Salt Lake Center
06:27PM 44.5772 -106.8650 280° West 339 390 26,400 1,020 Climbing Salt Lake Center
06:28PM 44.5947 -106.9961 281° West 348 400 27,300 840 Climbing Salt Lake Center
06:29PM 44.6114 -107.1342 280° West 361 415 28,200 1,020 Climbing Salt Lake Center
06:30PM 44.6322 -107.2950 280° West 367 422 29,400 1,080 Climbing Salt Lake Center
06:31PM 44.6489 -107.4319 280° West 370 426 30,500 1,200 Climbing Salt Lake Center
06:32PM 44.6675 -107.5869 280° West 363 418 31,900 1,140 Climbing Salt Lake Center
06:33PM 44.6844 -107.7189 280° West 360 414 32,900 960 Climbing Salt Lake Center
06:34PM 44.6997 -107.8522 279° West 362 417 33,900 1,080 Climbing Salt Lake Center
06:35PM 44.7189 -108.0050 280° West 357 411 35,100 1,020 Climbing Salt Lake Center
06:36PM 44.7333 -108.1347 279° West 353 406 36,100 840 Climbing Salt Lake Center
06:37PM 44.7511 -108.2831 280° West 348 400 36,900 600 Climbing Salt Lake Center
06:38PM 44.7644 -108.4100 278° West 346 398 37,400 480 Climbing Salt Lake Center
06:39PM 44.7800 -108.5381 280° West 346 398 38,000 240 Climbing Salt Lake Center
06:40PM 44.7950 -108.6889 278° West 348 400 38,000  Level Salt Lake Center
06:41PM 44.8086 -108.8250 278° West 362 417 38,000  Level Salt Lake Center
06:42PM 44.8292 -108.9889 280° West 377 434 38,000  Level Salt Lake Center
06:43PM 44.8450 -109.1339 279° West 388 447 38,000  Level Salt Lake Center
06:44PM 44.8636 -109.3078 279° West 399 459 38,000  Level Salt Lake Center
06:45PM 44.8803 -109.4581 279° West 404 465 38,000  Level Salt Lake Center
06:46PM 44.8969 -109.6094 279° West 408 470 38,000  Level Salt Lake Center
06:47PM 44.9158 -109.7861 279° West 408 470 38,000 240 Level Salt Lake Center
06:49PM 44.9306 -109.9375 278° West 409 471 38,500 480 Climbing Salt Lake Center
06:50PM 44.9483 -110.1092 278° West 400 460 39,100 540 Climbing Salt Lake Center
06:51PM 44.9628 -110.2522 278° West 390 449 39,700 420 Climbing Salt Lake Center
06:52PM 44.9781 -110.4181 277° West 384 442 40,000 120 Climbing Salt Lake Center
06:53PM 44.9925 -110.5619 278° West 386 444 40,000  Level Salt Lake Center
06:54PM 45.0058 -110.7069 277° West 389 448 40,000  Level Salt Lake Center
06:55PM 45.0225 -110.8792 278° West 396 456 40,000  Level Salt Lake Center
06:56PM 45.0367 -111.0283 278° West 402 463 40,000  Level Salt Lake Center
06:57PM 45.0536 -111.2056 278° West 407 468 40,000  Level Salt Lake Center
06:58PM 45.0664 -111.3547 277° West 404 465 40,000  Level Salt Lake Center
06:59PM 45.0814 -111.5317 277° West 408 470 40,000  Level Salt Lake Center
07:00PM 45.0950 -111.6833 277° West 409 471 40,000  Level Salt Lake Center
07:01PM 45.1089 -111.8475 277° West 405 466 40,000  Level Salt Lake Center
07:02PM 45.1219 -112.0064 277° West 405 466 40,000  Level Salt Lake Center
07:03PM 45.1375 -112.1850 277° West 402 463 40,000  Level Salt Lake Center
07:04PM 45.1486 -112.3342 276° West 400 460 40,000  Level Salt Lake Center
07:05PM 45.1603 -112.4822 276° West 398 458 40,000  Level Salt Lake Center
07:06PM 45.1744 -112.6519 277° West 392 451 40,000  Level Salt Lake Center
07:07PM 45.1850 -112.7997 276° West 392 451 40,000  Level Salt Lake Center
07:08PM 45.1978 -112.9736 276° West 397 457 40,000 180 Level Salt Lake Center
07:09PM 45.2103 -113.1206 277° West 393 452 40,400 480 Climbing Salt Lake Center
07:10PM 45.2217 -113.2878 276° West 383 441 41,000 240 Climbing Salt Lake Center
07:11PM 45.2317 -113.4342 276° West 389 448 41,000  Level Salt Lake Center
07:12PM 45.2414 -113.5803 275° West 392 451 41,000  Level Salt Lake Center
07:13PM 45.2433 -113.7556 271° West 400 460 41,000  Level Salt Lake Center
07:14PM 45.2333 -113.9078 265° West 405 466 41,000  Level Salt Lake Center
07:15PM 45.2239 -114.0750 265° West 405 466 41,000  Level Salt Lake Center
07:16PM 45.2150 -114.2525 266° West 404 465 41,000  Level Salt Lake Center
07:17PM 45.2086 -114.4056 267° West 407 468 41,000  Level Salt Lake Center
07:18PM 45.2006 -114.5581 266° West 406 467 41,000  Level Salt Lake Center
07:19PM 45.2114 -114.7356 275° West 407 468 41,000  Level Salt Lake Center
07:20PM 45.2231 -114.8867 276° West 405 466 41,000  Level Salt Lake Center
07:21PM 45.2358 -115.0625 276° West 403 464 41,000  Level Salt Lake Center
07:22PM 45.2461 -115.2117 276° West 400 460 41,000  Level Salt Lake Center
07:23PM 45.2578 -115.3886 275° West 404 465 41,000  Level Salt Lake Center
07:24PM 45.2686 -115.5408 276° West 405 466 41,000  Level Salt Lake Center
07:25PM 45.2808 -115.7211 276° West 412 474 41,000  Level Salt Lake Center
07:27PM 45.2911 -115.8750 275° West 413 475 41,000  Level Salt Lake Center
07:28PM 45.3019 -116.0256 276° West 406 467 41,000  Level Salt Lake Center
07:29PM 45.3147 -116.2047 276° West 410 472 41,000  Level Salt Lake Center
07:30PM 45.3250 -116.3578 276° West 409 471 41,000  Level Salt Lake Center
07:31PM 45.3358 -116.5383 275° West 411 473 41,000  Level Salt Lake Center
07:32PM 45.3458 -116.6925 275° West 413 475 41,000  Level Salt Lake Center
07:33PM 45.3597 -116.9258 275° West 412 474 41,000  Level Seattle Center
07:34PM 45.3692 -117.0817 275° West 415 478 41,000  Level Seattle Center
07:35PM 45.3794 -117.2631 275° West 414 476 41,000  Level Seattle Center
07:36PM 45.3886 -117.4183 275° West 412 474 41,000  Level Seattle Center
07:37PM 45.3978 -117.5758 275° West 404 465 41,000  Level Seattle Center
07:38PM 45.4056 -117.7347 274° West 404 465 41,000  Level Seattle Center
07:39PM 45.4133 -117.8911 274° West 400 460 41,000  Level Seattle Center
07:40PM 45.4219 -118.0497 274° West 402 463 41,000  Level Seattle Center
07:41PM 45.4306 -118.2075 275° West 402 463 41,000  Level Seattle Center
07:42PM 45.4381 -118.3672 274° West 405 466 41,000  Level Seattle Center
07:43PM 45.4450 -118.5250 274° West 403 464 41,000  Level Seattle Center
07:44PM 45.4522 -118.6825 274° West 402 463 41,000  Level Seattle Center
07:45PM 45.4600 -118.8394 274° West 399 459 41,000  Level Seattle Center
07:46PM 45.4681 -119.0283 274° West 400 460 41,000  Level Seattle Center
07:47PM 45.4747 -119.1853 274° West 401 461 41,000  Level Seattle Center
07:48PM 45.4814 -119.3428 274° West 401 461 41,000  Level Seattle Center
07:49PM 45.4867 -119.4986 273° West 400 460 41,000 -420 Level Seattle Center
07:50PM 45.4931 -119.6564 273° West 400 460 40,200 -1,080 Descending Seattle Center
07:51PM 45.4978 -119.8131 273° West 400 460 38,900 -1,380 Descending Seattle Center
07:52PM 45.5042 -119.9706 273° West 401 461 37,400 -1,560 Descending Seattle Center
07:53PM 45.5086 -120.1283 272° West 402 463 35,800 -1,680 Descending Seattle Center
07:54PM 45.5133 -120.3150 272° West 398 458 34,000 -1,860 Descending Seattle Center
07:55PM 45.5161 -120.4725 271° West 399 459 32,100 -1,860 Descending Seattle Center
07:56PM 45.5175 -120.6331 271° West 406 467 30,200 -2,040 Descending Seattle Center
07:57PM 45.5197 -120.8000 271° West 422 486 28,000 -2,220 Descending Seattle Center
07:58PM 45.5217 -120.9717 271° West 436 502 25,700 -2,280 Descending Seattle Center
07:59PM 45.5233 -121.1447 271° West 438 504 23,400 -2,220 Descending Seattle Center
08:00PM 45.5253 -121.3081 271° West 419 482 21,200 -2,220 Descending Seattle Center
08:02PM 45.5269 -121.4686 271° West 407 468 18,900 -2,220 Descending Seattle Center
08:03PM 45.5275 -121.6261 270° West 399 459 16,700 -2,280 Descending Seattle Center
08:04PM 45.5297 -121.7786 271° West 389 448 14,300 -2,460 Descending Seattle Center
08:05PM 45.5336 -121.9444 272° West 372 428 11,700 -2,280 Descending Seattle Center
08:06PM 45.5364 -122.0672 272° West 318 366 9,700 -2,100 Descending Seattle Center
08:07PM 45.5350 -122.1783 269° West 287 330 7,500 -2,280 Descending Seattle Center
08:08PM 45.5208 -122.2817 259° West 277 319 5,100 -2,340 Descending Seattle Center
08:09PM 45.5011 -122.3728 253° West 268 308 2,800 -1,740 Descending Seattle Center
08:10PM 45.5375 -122.4453 306° West 231 266 1,600 -960 Descending Seattle Center
08:11PM 45.5633 -122.5117 299° West 214 246 900 -660 Descending Seattle Center
08:12PM 45.5869 -122.5681 301° West 191 220 300 -600 Descending Seattle Center